Ribeirao, Brazil
Current Conditions -  °F | °C
As of 5:00 PM on Wednesday 28 Jan 2015 (Local Time) from SBRF Reporting Station
Scattered Clouds Scattered Clouds  
Wind Chill: 82°   Ceiling: Unl
Heat Index: 87°   Visibility: 6mi
Dew Point: 72°   Wind: 9mph
Humidity: 70%   Direction: 110°ESE
Pressure: 29.88"   Gusts: NA
Location:  8.51°S, 35.38°W
Report Text: SBRF 282000Z 11008KT 9999 FEW023 SCT060 28/22 Q1012
Loading
Personal Weather Stations






























Interactive Weather Map New forecast layout! Learn more

10-Day Weather Forecast

Advertisements
Track Severe Weather on mobile